117 Куст

Карта отелей и гостиниц, располагающихся рядом с аэропортом 117 Куст :

117 Куст Ямало-Ненецкий автономный округ 66° 50' 18.8988" N, 79° 36' 24.3612" E
117 Куст Ямало-Ненецкий автономный округ 66° 50' 18.8988" N, 79° 36' 24.3612" E
Код аэродрома ИКАО
HB66
Код аэродрома RU
ХБ66
Координаты
N66.83858° E079.60677°
Превышение над уровнем моря
40
Основная полоса
Курс магнитный
Длина основной ВПП
Ширина основной ВПП
Покрытие основной ВПП
Освещение ВПП
Тип: 
Вертодром
Класс аэродрома: 
Принадлежность: 
Статус: 
Недействующий
Сайт: 
E-mail аэродрома: 
Страна: 
Россия
Регион: 
Ямало-Ненецкий автономный округ
Город: 
Дополнительная информация: 

Найти трансфер

С помощью этой формы Вы можете найти трансфер из аэропорта 117 Куст в город, аэропорт или вокзал:

Карта места

Javascript is required to view this map.

Погода в аэропортах:

Авиационная погода в Куусамо

Регион: 
Погода METAR: 
EFKS 251850Z AUTO VRB02KT 9999 -SHSN BKN030 M07/M09 Q1001
Время наблюдения
2021-01-25T18:50:00Z
Температура C
-7.0
Точка росы
-9.0
Направление ветра
0
Скорость ветра (узлы)
2
Метео видимость
6.21
Явления погоды
-SHSN
Условия полета
MVFR

Авиационная погода в Якутске

Регион: 
Погода METAR: 
UEEE 251830Z 32001MPS 0200 0150NE R23L/0550N FG NSC M51/M57 Q1043 R23L/450150 NOSIG RMK QFE773
Время наблюдения
2021-01-25T18:30:00Z
Температура C
-51.0
Точка росы
-57.0
Направление ветра
320
Скорость ветра (узлы)
2
Метео видимость
0.12
Явления погоды
FG
Условия полета
LIFR
Аэропорт подробнее: 

Авиационная погода в Чимкенте

Регион: 
Погода METAR: 
UAII 251830Z 00000MPS 0150 R28/0500N FZFG VV007 M04/M04 Q1028 R28/0///70 NOSIG RMK QFE733/0978
Время наблюдения
2021-01-25T18:30:00Z
Температура C
-4.0
Точка росы
-4.0
Направление ветра
0
Скорость ветра (узлы)
0
Метео видимость
0.09
Явления погоды
FZFG
Условия полета
LIFR
Аэропорт подробнее: 

Авиационная погода в Кокшетау

Регион: 
Погода METAR: 
UACK 250930Z 30004MPS 9000 -SHSN BKN009CB OVC046 M10/M11 Q1027 NOSIG RMK QFE746/0995
Время наблюдения
2021-01-25T09:30:00Z
Температура C
-10.0
Точка росы
-11.0
Направление ветра
300
Скорость ветра (узлы)
8
Метео видимость
5.59
Явления погоды
-SHSN
Условия полета
IFR
Аэропорт подробнее: